Camano Island, Washington
Current Conditions -  °F | °C
As of 7:56 PM on Thursday 18 Dec 2014 (Local Time) from KNUW Reporting Station
Overcast Overcast  
Wind Chill: 53°   Ceiling: 8500
Heat Index: 53°   Visibility: 10mi
Dew Point: 43°   Wind: 25mph
Humidity: 69%   Direction: 140°SE
Pressure: 29.68"   Gusts: 39mph
Location:  48.16°N, 122.49°W
Report Text: KNUW 190356Z 14022G34KT 10SM SCT035 BKN085 BKN110 OVC140 12/06 A2968 RMK AO2 PK WND 14037/0304 SLP055 T01170061 VISNO E $
Loading
Personal Weather Stations






























Interactive Weather Map New forecast layout! Learn more

10-Day Weather Forecast

Advertisements
Track Severe Weather on mobile